createdAt,value
2018-11-23T00:01:51.496Z,6.45
2018-11-23T00:04:32.769Z,7.28
2018-11-23T00:07:14.036Z,5.58
2018-11-23T00:09:55.696Z,4.28
2018-11-23T00:12:37.083Z,3.95
2018-11-23T00:15:18.925Z,5.30
2018-11-23T00:18:00.145Z,7.45
2018-11-23T00:20:41.457Z,4.78
2018-11-23T00:23:22.687Z,7.83
2018-11-23T00:26:03.204Z,4.67
2018-11-23T00:28:44.268Z,6.20
2018-11-23T00:31:25.404Z,5.25
2018-11-23T00:34:06.669Z,6.95
2018-11-23T00:36:47.516Z,6.47
2018-11-23T00:39:28.555Z,4.50
2018-11-23T00:42:09.780Z,3.70
2018-11-23T00:44:50.472Z,5.50
2018-11-23T00:47:31.169Z,5.00
2018-11-23T00:50:12.266Z,4.15
2018-11-23T00:52:53.990Z,4.08
2018-11-23T00:55:35.320Z,3.98
2018-11-23T00:58:16.828Z,9.28
2018-11-23T01:00:57.494Z,4.08
2018-11-23T01:03:38.352Z,4.65
2018-11-23T01:06:19.810Z,3.77
2018-11-23T01:09:01.062Z,3.98
2018-11-23T01:11:42.229Z,5.10
2018-11-23T01:14:23.278Z,3.50
2018-11-23T01:17:04.352Z,6.03
2018-11-23T01:19:45.037Z,4.25
2018-11-23T01:22:26.001Z,4.30
2018-11-23T01:25:07.483Z,4.53
2018-11-23T01:27:49.869Z,6.03
2018-11-23T01:30:31.797Z,4.67
2018-11-23T01:33:13.019Z,3.20
2018-11-23T01:35:53.864Z,5.55
2018-11-23T01:38:35.116Z,4.78
2018-11-23T01:41:15.867Z,4.45
2018-11-23T01:43:56.753Z,5.35
2018-11-23T01:46:37.725Z,4.58
2018-11-23T01:49:19.050Z,4.70
2018-11-23T01:51:59.912Z,3.67
2018-11-23T01:54:41.242Z,3.10
2018-11-23T01:57:22.338Z,5.95
2018-11-23T02:00:03.765Z,8.08
2018-11-23T02:02:44.699Z,4.08
2018-11-23T02:05:25.489Z,2.98
2018-11-23T02:08:06.578Z,3.40
2018-11-23T02:10:47.353Z,4.47
2018-11-23T02:13:28.425Z,4.35
2018-11-23T02:16:09.472Z,6.35
2018-11-23T02:18:50.312Z,4.78
2018-11-23T02:21:31.451Z,5.08
2018-11-23T02:24:12.675Z,5.33
2018-11-23T02:26:53.532Z,3.62
2018-11-23T02:29:34.340Z,3.95
2018-11-23T02:32:15.666Z,5.50
2018-11-23T02:34:56.529Z,8.05
2018-11-23T02:37:38.085Z,3.98
2018-11-23T02:40:20.051Z,6.58
2018-11-23T02:43:01.509Z,3.50
2018-11-23T02:45:43.013Z,5.67
2018-11-23T02:48:24.487Z,5.40
2018-11-23T02:51:05.570Z,4.67
2018-11-23T02:53:46.216Z,4.67
2018-11-23T02:56:27.170Z,5.00
2018-11-23T02:59:08.134Z,4.75
2018-11-23T03:01:48.917Z,2.80
2018-11-23T03:04:29.448Z,5.75
2018-11-23T03:07:10.626Z,6.55
2018-11-23T03:09:51.669Z,4.70
2018-11-23T03:12:32.540Z,5.92
2018-11-23T03:15:14.017Z,4.33
2018-11-23T03:17:55.338Z,5.35
2018-11-23T03:20:36.358Z,3.80
2018-11-23T03:23:17.697Z,4.05
2018-11-23T03:25:58.837Z,6.78
2018-11-23T03:28:39.958Z,4.72
2018-11-23T03:31:20.674Z,4.85
2018-11-23T03:34:02.079Z,3.05
2018-11-23T03:36:43.208Z,5.15
2018-11-23T03:39:24.281Z,5.42
2018-11-23T03:42:05.462Z,4.80
2018-11-23T03:44:46.909Z,4.33
2018-11-23T03:47:28.369Z,4.33
2018-11-23T03:50:10.294Z,5.03
2018-11-23T03:52:50.826Z,4.15
2018-11-23T03:55:31.952Z,2.92
2018-11-23T03:58:11.456Z,5.05
2018-11-23T04:01:00.058Z,4.15
2018-11-23T04:03:48.695Z,3.70
2018-11-23T04:06:37.057Z,3.60
2018-11-23T04:09:44.473Z,3.52
2018-11-23T04:12:32.813Z,3.40
2018-11-23T04:15:21.155Z,4.20
2018-11-23T04:18:09.781Z,2.77
2018-11-23T04:21:00.148Z,3.33
2018-11-23T04:23:48.490Z,5.15
2018-11-23T04:26:36.853Z,4.85
2018-11-23T04:29:25.188Z,4.67
2018-11-23T04:32:13.840Z,2.60
2018-11-23T04:35:02.186Z,4.97
2018-11-23T04:37:50.899Z,5.83
2018-11-23T04:40:39.531Z,3.40
2018-11-23T04:43:28.192Z,4.65
2018-11-23T04:46:16.859Z,4.20
2018-11-23T04:49:05.416Z,4.67
2018-11-23T04:51:54.121Z,5.92
2018-11-23T04:54:43.072Z,4.12
2018-11-23T04:57:31.419Z,4.05
2018-11-23T05:00:19.779Z,6.05
2018-11-23T05:03:08.468Z,3.55
2018-11-23T05:05:56.827Z,3.92
2018-11-23T05:08:45.169Z,4.45
2018-11-23T05:11:33.551Z,4.70
2018-11-23T05:17:30.041Z,4.05
2018-11-23T05:20:18.707Z,3.20
2018-11-23T05:23:07.049Z,5.08
2018-11-23T05:25:55.397Z,3.90
2018-11-23T05:28:43.739Z,3.72
2018-11-23T05:31:32.077Z,5.00
2018-11-23T05:34:21.256Z,2.90
2018-11-23T05:37:09.620Z,5.28
2018-11-23T05:39:57.972Z,5.90
2018-11-23T05:42:46.634Z,4.50
2018-11-23T05:45:34.965Z,4.92
2018-11-23T05:48:26.979Z,4.45
2018-11-23T05:51:12.198Z,3.15
2018-11-23T05:54:00.923Z,5.45
2018-11-23T05:56:49.268Z,4.42
2018-11-23T05:59:37.616Z,6.03
2018-11-23T06:02:25.973Z,6.72
2018-11-23T06:05:14.363Z,3.37
2018-11-23T06:08:03.032Z,4.67
2018-11-23T06:10:51.696Z,3.80
2018-11-23T06:13:40.343Z,3.83
2018-11-23T06:16:28.682Z,4.70
2018-11-23T06:19:18.032Z,3.58
2018-11-23T06:22:06.380Z,6.30
2018-11-23T06:24:54.729Z,4.87
2018-11-23T06:27:43.093Z,5.78
2018-11-23T06:30:31.458Z,4.90
2018-11-23T06:33:40.182Z,5.10
2018-11-23T06:36:28.517Z,4.72
2018-11-23T06:39:17.235Z,5.95
2018-11-23T06:42:06.202Z,5.22
2018-11-23T06:44:54.554Z,4.85
2018-11-23T06:47:44.014Z,5.80
2018-11-23T06:50:32.715Z,6.87
2018-11-23T06:53:21.063Z,3.77
2018-11-23T06:56:09.418Z,4.60
2018-11-23T06:58:50.944Z,4.78
2018-11-23T07:01:32.167Z,6.37
2018-11-23T07:04:13.245Z,5.58
2018-11-23T07:06:54.198Z,6.30
2018-11-23T07:09:35.201Z,5.10
2018-11-23T07:12:16.453Z,6.87
2018-11-23T07:14:56.970Z,4.42
2018-11-23T07:17:38.010Z,5.15
2018-11-23T07:20:19.656Z,6.50
2018-11-23T07:23:00.530Z,4.85
2018-11-23T07:25:41.357Z,6.70
2018-11-23T07:28:22.336Z,5.87
2018-11-23T07:31:02.930Z,6.00
2018-11-23T07:33:43.834Z,5.90
2018-11-23T07:36:24.272Z,6.72
2018-11-23T07:39:05.626Z,4.90
2018-11-23T07:41:46.990Z,4.92
2018-11-23T07:44:28.281Z,4.78
2018-11-23T07:47:09.418Z,4.85
2018-11-23T07:49:50.536Z,4.40
2018-11-23T07:52:31.251Z,3.65
2018-11-23T07:55:12.737Z,6.62
2018-11-23T07:57:54.058Z,5.22
2018-11-23T08:00:35.020Z,6.08
2018-11-23T08:03:16.180Z,8.25
2018-11-23T08:05:57.041Z,6.47
2018-11-23T08:08:37.958Z,7.87
2018-11-23T08:11:19.296Z,8.15
2018-11-23T08:14:00.249Z,7.58
2018-11-23T08:16:41.166Z,8.25
2018-11-23T08:19:22.001Z,8.20
2018-11-23T08:22:03.268Z,8.00
2018-11-23T08:24:44.437Z,8.38
2018-11-23T08:27:25.193Z,9.13
2018-11-23T08:30:06.011Z,7.75
2018-11-23T08:32:47.305Z,11.55
2018-11-23T08:35:29.033Z,10.40
2018-11-23T08:38:09.709Z,10.68
2018-11-23T08:40:50.475Z,8.33
2018-11-23T08:43:31.274Z,9.33
2018-11-23T08:46:12.653Z,8.95
2018-11-23T08:48:53.645Z,11.12
2018-11-23T08:51:34.739Z,12.05
2018-11-23T08:54:15.913Z,12.60
2018-11-23T08:56:56.882Z,11.95
2018-11-23T08:59:38.015Z,12.35
2018-11-23T09:02:18.828Z,12.55
2018-11-23T09:05:00.223Z,12.58
2018-11-23T09:07:41.354Z,12.58
2018-11-23T09:10:22.915Z,12.75
2018-11-23T09:13:03.867Z,12.68
2018-11-23T09:15:45.200Z,13.72
2018-11-23T09:18:25.746Z,12.60
2018-11-23T09:21:06.383Z,14.20
2018-11-23T09:23:47.759Z,13.80
2018-11-23T09:26:29.131Z,14.23
2018-11-23T09:29:10.427Z,14.13
2018-11-23T09:31:50.964Z,13.85
2018-11-23T09:34:32.726Z,14.35
2018-11-23T09:37:13.674Z,13.85
2018-11-23T09:39:54.818Z,13.78
2018-11-23T09:42:36.035Z,13.75
2018-11-23T09:45:37.017Z,14.05
2018-11-23T09:48:18.180Z,13.55
2018-11-23T09:50:59.427Z,12.60
2018-11-23T09:53:41.577Z,13.13
2018-11-23T09:56:22.622Z,13.68
2018-11-23T09:59:03.402Z,13.30
2018-11-23T10:01:44.464Z,14.03
2018-11-23T10:04:25.858Z,13.90
2018-11-23T10:07:07.079Z,14.03
2018-11-23T10:09:48.044Z,14.98
2018-11-23T10:12:28.866Z,12.88
2018-11-23T10:15:10.737Z,14.25
2018-11-23T10:17:51.662Z,14.73
2018-11-23T10:20:33.838Z,13.62
2018-11-23T10:23:15.303Z,14.73
2018-11-23T10:25:56.699Z,13.68
2018-11-23T10:28:37.618Z,13.58
2018-11-23T10:31:18.788Z,13.45
2018-11-23T10:33:59.950Z,15.68
2018-11-23T10:36:41.374Z,14.23
2018-11-23T10:39:22.473Z,13.53
2018-11-23T10:42:03.991Z,13.43
2018-11-23T10:44:45.167Z,14.00
2018-11-23T10:47:26.343Z,14.45
2018-11-23T10:50:07.611Z,13.50
2018-11-23T10:52:48.357Z,13.05
2018-11-23T10:55:33.375Z,14.00
2018-11-23T10:58:14.849Z,12.95
2018-11-23T11:04:21.703Z,12.20
2018-11-23T11:07:06.852Z,12.93
2018-11-23T11:09:48.153Z,14.25
2018-11-23T11:12:28.904Z,11.83
2018-11-23T11:15:10.171Z,12.63
2018-11-23T11:17:50.663Z,12.30
2018-11-23T11:20:31.530Z,11.95
2018-11-23T11:23:12.898Z,10.80
2018-11-23T11:25:54.287Z,12.28
2018-11-23T11:28:35.202Z,11.22
2018-11-23T11:31:16.906Z,11.88
2018-11-23T11:33:58.273Z,11.80
2018-11-23T11:36:39.398Z,11.53
2018-11-23T11:39:20.631Z,11.15
2018-11-23T11:42:01.815Z,11.38
2018-11-23T11:44:43.054Z,10.78
2018-11-23T11:47:24.217Z,11.43
2018-11-23T11:50:06.661Z,10.72
2018-11-23T11:52:48.219Z,9.95
2018-11-23T11:55:29.138Z,11.93
2018-11-23T11:58:10.493Z,9.80
2018-11-23T12:00:51.649Z,11.30
2018-11-23T12:03:32.705Z,9.78
2018-11-23T12:06:13.716Z,9.00
2018-11-23T12:08:54.584Z,10.23
2018-11-23T12:11:35.508Z,9.08
2018-11-23T12:14:16.754Z,9.23
2018-11-23T12:16:57.943Z,9.18
2018-11-23T12:19:38.977Z,9.35
2018-11-23T12:22:20.392Z,7.95
2018-11-23T12:25:01.604Z,9.40
2018-11-23T12:27:42.137Z,9.03
2018-11-23T12:30:23.279Z,8.10
2018-11-23T12:33:04.300Z,9.65
2018-11-23T12:35:45.426Z,8.75
2018-11-23T12:38:26.031Z,8.65
2018-11-23T12:41:06.734Z,9.28
2018-11-23T12:43:47.678Z,8.38
2018-11-23T12:46:28.872Z,8.35
2018-11-23T12:49:10.126Z,8.10
2018-11-23T12:51:51.106Z,8.23
2018-11-23T12:54:31.990Z,8.10
2018-11-23T12:57:13.286Z,8.85
2018-11-23T12:59:54.589Z,8.20
2018-11-23T13:02:35.872Z,9.08
2018-11-23T13:05:16.821Z,7.92
2018-11-23T13:07:58.886Z,7.42
2018-11-23T13:10:39.957Z,8.98
2018-11-23T13:13:21.174Z,7.37
2018-11-23T13:16:02.153Z,8.50
2018-11-23T13:18:43.189Z,8.58
2018-11-23T13:21:24.760Z,7.45
2018-11-23T13:24:05.960Z,7.85
2018-11-23T13:26:46.771Z,7.60
2018-11-23T13:29:27.698Z,7.40
2018-11-23T13:32:08.707Z,6.90
2018-11-23T13:34:49.778Z,7.15
2018-11-23T13:37:30.743Z,5.97
2018-11-23T13:40:12.817Z,7.70
2018-11-23T13:42:54.930Z,5.70
2018-11-23T13:45:35.935Z,7.60
2018-11-23T13:48:20.003Z,7.97
2018-11-23T13:50:57.983Z,7.87
2018-11-23T13:53:39.289Z,6.30
2018-11-23T13:56:20.190Z,6.53
2018-11-23T13:59:01.301Z,6.90
2018-11-23T14:01:42.654Z,5.75
2018-11-23T14:04:23.717Z,7.35
2018-11-23T14:07:04.954Z,6.12
2018-11-23T14:09:46.109Z,7.85
2018-11-23T14:12:27.437Z,6.87
2018-11-23T14:15:08.710Z,7.17
2018-11-23T14:17:50.519Z,6.95
2018-11-23T14:20:31.317Z,5.58
2018-11-23T14:23:12.844Z,7.08
2018-11-23T14:25:54.892Z,6.58
2018-11-23T14:28:35.409Z,6.33
2018-11-23T14:31:15.916Z,5.08
2018-11-23T14:33:56.844Z,6.40
2018-11-23T14:36:37.696Z,6.97
2018-11-23T14:39:18.256Z,5.65
2018-11-23T14:41:59.148Z,5.58
2018-11-23T14:44:40.097Z,5.95
2018-11-23T14:47:21.370Z,6.85
2018-11-23T14:50:02.251Z,5.25
2018-11-23T14:52:44.217Z,5.28
2018-11-23T14:55:25.434Z,6.62
2018-11-23T14:58:06.585Z,5.85
2018-11-23T15:00:47.540Z,6.70
2018-11-23T15:03:28.918Z,5.72
2018-11-23T15:06:08.401Z,9.90
2018-11-23T15:12:04.547Z,5.60
2018-11-23T15:14:52.856Z,5.87
2018-11-23T15:17:41.399Z,5.22
2018-11-23T15:20:30.839Z,6.30
2018-11-23T15:23:19.864Z,4.83
2018-11-23T15:26:08.180Z,5.60
2018-11-23T15:28:56.824Z,5.65
2018-11-23T15:31:45.516Z,8.08
2018-11-23T15:34:34.172Z,5.97
2018-11-23T15:37:22.500Z,6.35
2018-11-23T15:40:30.636Z,5.45
2018-11-23T15:43:19.917Z,6.08
2018-11-23T15:46:08.255Z,5.40
2018-11-23T15:48:56.574Z,5.08
2018-11-23T15:51:44.905Z,5.78
2018-11-23T15:54:33.241Z,6.60
2018-11-23T15:57:21.556Z,7.50
2018-11-23T16:00:11.612Z,5.80
2018-11-23T16:02:59.921Z,6.12
2018-11-23T16:05:48.218Z,4.95
2018-11-23T16:08:36.512Z,5.95
2018-11-23T16:11:24.845Z,6.47
2018-11-23T16:14:32.220Z,6.30
2018-11-23T16:17:20.940Z,4.65
2018-11-23T16:20:10.621Z,4.58
2018-11-23T16:23:00.449Z,6.72
2018-11-23T16:25:49.391Z,5.45
2018-11-23T16:28:37.717Z,5.50
2018-11-23T16:31:26.351Z,5.35
2018-11-23T16:34:14.650Z,6.12
2018-11-23T16:37:02.982Z,6.53
2018-11-23T16:39:51.312Z,5.70
2018-11-23T16:42:40.188Z,6.08
2018-11-23T16:45:29.886Z,6.85
2018-11-23T16:48:19.031Z,6.62
2018-11-23T16:51:07.336Z,6.50
2018-11-23T16:53:55.632Z,6.83
2018-11-23T16:57:02.772Z,8.48
2018-11-23T16:59:51.379Z,5.12
2018-11-23T17:02:40.536Z,6.78
2018-11-23T17:05:30.312Z,7.12
2018-11-23T17:08:18.656Z,7.87
2018-11-23T17:11:06.965Z,7.08
2018-11-23T17:13:55.521Z,8.58
2018-11-23T17:16:43.847Z,7.30
2018-11-23T17:19:32.164Z,7.20
2018-11-23T17:22:20.756Z,7.55
2018-11-23T17:25:10.090Z,7.20
2018-11-23T17:27:59.688Z,7.37
2018-11-23T17:30:48.000Z,6.35
2018-11-23T17:33:36.632Z,6.22
2018-11-23T17:36:24.937Z,6.47
2018-11-23T17:39:05.447Z,6.90
2018-11-23T17:41:46.478Z,6.62
2018-11-23T17:44:27.543Z,5.15
2018-11-23T17:47:08.706Z,7.25
2018-11-23T17:49:49.806Z,8.38
2018-11-23T17:52:31.288Z,7.60
2018-11-23T17:55:12.576Z,6.10
2018-11-23T17:57:54.774Z,7.53
2018-11-23T18:00:39.352Z,8.45
2018-11-23T18:03:17.041Z,8.20
2018-11-23T18:05:57.971Z,7.35
2018-11-23T18:08:39.174Z,7.83
2018-11-23T18:11:20.173Z,6.65
2018-11-23T18:14:00.945Z,7.50
2018-11-23T18:16:41.613Z,7.97
2018-11-23T18:19:22.635Z,7.87
2018-11-23T18:22:03.536Z,9.00
2018-11-23T18:24:45.235Z,6.42
2018-11-23T18:27:25.861Z,7.97
2018-11-23T18:30:06.828Z,7.22
2018-11-23T18:32:47.933Z,6.00
2018-11-23T18:35:28.840Z,7.60
2018-11-23T18:38:09.859Z,6.33
2018-11-23T18:41:19.148Z,9.33
2018-11-23T18:43:47.177Z,9.40
2018-11-23T18:46:15.216Z,7.08
2018-11-23T18:48:43.244Z,5.47
2018-11-23T18:51:11.289Z,6.90
2018-11-23T18:53:39.333Z,6.60
2018-11-23T18:56:07.399Z,8.13
2018-11-23T18:58:35.448Z,6.17
2018-11-23T19:01:03.493Z,9.35
2018-11-23T19:03:31.533Z,7.15
2018-11-23T19:05:59.573Z,8.38
2018-11-23T19:08:27.613Z,6.53
2018-11-23T19:10:55.668Z,6.42
2018-11-23T19:13:23.709Z,7.75
2018-11-23T19:15:51.749Z,7.10
2018-11-23T19:18:19.796Z,6.70
2018-11-23T19:20:47.832Z,6.87
2018-11-23T19:23:15.884Z,7.30
2018-11-23T19:25:43.919Z,6.95
2018-11-23T19:28:11.965Z,7.20
2018-11-23T19:30:40.012Z,7.10
2018-11-23T19:33:08.046Z,6.25
2018-11-23T19:35:36.085Z,9.08
2018-11-23T19:38:04.130Z,6.62
2018-11-23T19:40:32.161Z,6.90
2018-11-23T19:43:00.205Z,7.10
2018-11-23T19:45:28.238Z,8.10
2018-11-23T19:47:56.281Z,8.28
2018-11-23T19:50:24.315Z,8.30
2018-11-23T19:52:52.360Z,6.35
2018-11-23T19:55:20.392Z,6.80
2018-11-23T19:57:48.536Z,7.53
2018-11-23T20:00:23.656Z,8.48
2018-11-23T20:02:51.722Z,6.78
2018-11-23T20:05:19.777Z,7.80
2018-11-23T20:07:49.148Z,6.25
2018-11-23T20:10:18.040Z,5.97
2018-11-23T20:12:46.957Z,7.85
2018-11-23T20:15:16.269Z,8.10
2018-11-23T20:17:44.356Z,7.53
2018-11-23T20:20:14.476Z,6.33
2018-11-23T20:22:42.744Z,6.10
2018-11-23T20:25:13.719Z,7.85
2018-11-23T20:27:41.766Z,9.95
2018-11-23T20:30:12.045Z,7.55
2018-11-23T20:32:40.221Z,10.68
2018-11-23T20:35:09.751Z,9.33
2018-11-23T20:37:37.798Z,8.48
2018-11-23T20:40:10.420Z,9.30
2018-11-23T20:42:38.629Z,7.70
2018-11-23T20:45:08.443Z,7.00
2018-11-23T20:47:36.697Z,8.48
2018-11-23T20:50:06.449Z,9.50
2018-11-23T20:52:34.497Z,8.85
2018-11-23T20:55:02.676Z,6.95
2018-11-23T20:57:30.714Z,7.97
2018-11-23T20:59:58.869Z,8.55
2018-11-23T21:02:26.894Z,8.95
2018-11-23T21:04:54.912Z,9.08
2018-11-23T21:07:22.941Z,8.08
2018-11-23T21:09:51.182Z,9.50
2018-11-23T21:12:19.205Z,8.03
2018-11-23T21:14:47.231Z,8.90
2018-11-23T21:17:15.261Z,8.78
2018-11-23T21:19:43.276Z,10.10
2018-11-23T21:22:11.311Z,8.28
2018-11-23T21:24:39.328Z,7.42
2018-11-23T21:27:07.444Z,7.70
2018-11-23T21:29:35.457Z,8.20
2018-11-23T21:32:03.505Z,8.75
2018-11-23T21:34:31.529Z,6.97
2018-11-23T21:36:59.553Z,10.23
2018-11-23T21:39:27.581Z,8.40
2018-11-23T21:41:55.593Z,7.47
2018-11-23T21:44:23.617Z,9.00
2018-11-23T21:46:51.645Z,7.00
2018-11-23T21:49:19.676Z,8.20
2018-11-23T21:51:47.684Z,7.53
2018-11-23T21:54:15.721Z,4.28
2018-11-23T21:56:43.756Z,9.20
2018-11-23T21:59:11.805Z,8.35
2018-11-23T22:01:39.829Z,7.12
2018-11-23T22:04:07.849Z,8.23
2018-11-23T22:06:35.881Z,8.10
2018-11-23T22:09:05.989Z,7.40
2018-11-23T22:11:34.008Z,8.25
2018-11-23T22:14:02.041Z,8.80
2018-11-23T22:16:30.088Z,5.80
2018-11-23T22:18:58.108Z,7.92
2018-11-23T22:21:26.121Z,7.00
2018-11-23T22:23:57.091Z,8.30
2018-11-23T22:26:22.164Z,6.90
2018-11-23T22:28:50.189Z,6.42
2018-11-23T22:31:18.204Z,8.90
2018-11-23T22:33:46.279Z,7.28
2018-11-23T22:36:14.289Z,9.08
2018-11-23T22:38:42.315Z,7.47
2018-11-23T22:41:10.335Z,7.83
2018-11-23T22:43:38.353Z,8.10
2018-11-23T22:46:06.383Z,7.55
2018-11-23T22:48:34.388Z,5.17
2018-11-23T22:51:02.417Z,7.08
2018-11-23T22:53:30.428Z,6.87
2018-11-23T22:55:58.456Z,8.00
2018-11-23T22:58:26.477Z,7.60
2018-11-23T23:01:00.054Z,4.90
2018-11-23T23:03:28.049Z,8.25
2018-11-23T23:05:56.081Z,8.78
2018-11-23T23:08:24.105Z,7.22
2018-11-23T23:10:52.133Z,8.15
2018-11-23T23:13:20.154Z,8.55
2018-11-23T23:15:48.186Z,4.83
2018-11-23T23:18:16.202Z,6.47
2018-11-23T23:20:44.228Z,6.35
2018-11-23T23:23:12.239Z,8.23
2018-11-23T23:25:40.272Z,8.05
2018-11-23T23:28:08.297Z,6.90
2018-11-23T23:30:37.437Z,8.53
2018-11-23T23:33:04.336Z,8.05
2018-11-23T23:35:32.373Z,5.75
2018-11-23T23:38:00.377Z,7.78
2018-11-23T23:40:28.409Z,7.28
2018-11-23T23:42:56.433Z,6.50
2018-11-23T23:45:24.457Z,6.75
2018-11-23T23:47:52.482Z,5.67
2018-11-23T23:50:21.251Z,7.75
2018-11-23T23:52:49.952Z,7.25
2018-11-23T23:55:17.967Z,8.30
2018-11-23T23:57:46.637Z,5.58
